Orcutt, California
Current Conditions -  °F | °C
As of 3:51 PM on Tuesday 25 Nov 2014 (Local Time) from KSMX Reporting Station
Clear Clear  
Wind Chill: 73°   Ceiling: Unl
Heat Index: 73°   Visibility: 10mi
Dew Point: 38°   Wind: 10mph
Humidity: 28%   Direction: 320°NW
Pressure: 30.31"   Gusts: NA
Location:  34.8654°N, 120.435°W
Report Text: KSMX 252351Z 32009KT 10SM CLR 23/03 A3031 RMK AO2 SLP266 T02280033 10272 20206 56008 $
Loading
Personal Weather Stations






























Interactive Weather Map New forecast layout! Learn more

10-Day Weather Forecast

Advertisements
Track Severe Weather on mobile